Time;durP1;ratioP1;P1;durP2;ratioP2;P2;SDS_P1;SDS_P2;PMS_P1;PMS_P2;Temp;Humidity;BMP_temperature;BMP_pressure;BME280_temperature;BME280_humidity;BME280_pressure;Samples;Min_cycle;Max_cycle;Signal;HPM_P1;HPM_P2
2023/03/12 00:01:22;;;;;;;0.00;0.00;;;;;;;1.10;85.72;99537.50;6104746;23;20111;-88
2023/03/12 00:03:48;;;;;;;0.22;0.22;;;;;;;1.19;85.61;99567.97;6153676;23;20017;-88
2023/03/12 00:06:15;;;;;;;0.20;0.15;;;;;;;1.12;85.54;99554.31;6155135;23;20001;-93
2023/03/12 00:08:41;;;;;;;0.00;0.00;;;;;;;1.07;85.72;99552.72;6132659;23;20390;-92
2023/03/12 00:11:08;;;;;;;0.20;0.20;;;;;;;1.06;85.43;99562.06;6157765;23;20084;-93
2023/03/12 00:13:33;;;;;;;0.00;0.00;;;;;;;1.14;86.02;99590.19;6132896;23;20017;-94
2023/03/12 00:16:13;;;;;;;0.20;0.20;;;;;;;1.11;87.60;99575.38;6109102;23;20018;-94
2023/03/12 00:18:39;;;;;;;0.00;0.00;;;;;;;1.12;88.01;99578.88;6157918;23;20016;-93
2023/03/12 00:21:05;;;;;;;0.10;0.10;;;;;;;1.09;88.41;99577.72;6157606;23;20033;-94
2023/03/12 00:23:30;;;;;;;0.00;0.00;;;;;;;0.93;89.43;99556.16;6157638;23;20001;-93
2023/03/12 00:26:05;;;;;;;0.00;0.00;;;;;;;0.92;88.92;99571.00;6157573;23;20097;-92
2023/03/12 00:28:31;;;;;;;0.30;0.30;;;;;;;1.06;89.22;99592.13;6156569;23;20450;-94
2023/03/12 00:31:00;;;;;;;0.30;0.30;;;;;;;1.07;89.43;99584.72;6157414;23;20021;-93
2023/03/12 00:33:28;;;;;;;0.10;0.10;;;;;;;1.07;89.93;99590.19;6156474;23;20088;-93
2023/03/12 00:35:54;;;;;;;0.08;0.08;;;;;;;1.07;89.97;99581.97;6131179;23;20021;-93
2023/03/12 00:38:20;;;;;;;0.30;0.22;;;;;;;1.04;90.08;99588.22;6181372;23;20001;-94
2023/03/12 00:40:47;;;;;;;0.40;0.40;;;;;;;1.01;90.37;99583.53;6156784;23;20116;-94
2023/03/12 00:43:13;;;;;;;0.10;0.10;;;;;;;1.04;90.76;99599.16;6129841;23;20091;-94
2023/03/12 00:45:44;;;;;;;0.10;0.10;;;;;;;1.04;90.08;99604.59;6132173;23;20029;-92
2023/03/12 00:48:10;;;;;;;0.05;0.05;;;;;;;0.94;90.49;99579.59;6181405;23;20116;-93
2023/03/12 00:50:35;;;;;;;0.00;0.00;;;;;;;0.75;90.17;99538.94;6155769;23;20060;-93
2023/03/12 00:53:04;;;;;;;0.30;0.30;;;;;;;0.78;92.12;99556.50;6154229;23;20088;-93
2023/03/12 00:55:29;;;;;;;0.10;0.10;;;;;;;1.08;91.40;99611.66;6155442;23;20064;-93
2023/03/12 00:57:55;;;;;;;0.15;0.15;;;;;;;0.99;91.97;99615.88;6130889;23;20255;-93
2023/03/12 01:00:21;;;;;;;0.00;0.00;;;;;;;0.82;92.91;99585.38;6131084;23;20017;-94
2023/03/12 01:02:46;;;;;;;0.68;0.68;;;;;;;0.67;93.64;99567.38;6131043;23;20088;-93
2023/03/12 01:05:12;;;;;;;0.10;0.10;;;;;;;0.74;94.08;99578.31;6105393;23;20021;-87
2023/03/12 01:07:39;;;;;;;0.00;0.00;;;;;;;0.77;94.43;99579.53;6105229;23;20020;-88
2023/03/12 01:10:05;;;;;;;0.00;0.00;;;;;;;0.64;95.85;99572.81;6129314;23;20036;-88
2023/03/12 01:12:31;;;;;;;0.00;0.00;;;;;;;0.89;95.79;99609.97;6128023;23;20017;-87
2023/03/12 01:14:57;;;;;;;0.00;0.00;;;;;;;0.83;96.52;99605.28;6128050;23;20111;-87
2023/03/12 01:17:22;;;;;;;0.00;0.00;;;;;;;0.77;97.25;99602.13;6129223;23;20088;-88
2023/03/12 01:19:48;;;;;;;0.17;0.17;;;;;;;0.89;97.14;99615.44;6131198;23;20513;-94
2023/03/12 01:22:13;;;;;;;0.10;0.10;;;;;;;0.66;97.85;99595.81;6107214;23;20100;-94
2023/03/12 01:24:39;;;;;;;0.10;0.10;;;;;;;0.72;97.66;99605.22;6131703;23;20435;-93
2023/03/12 01:27:05;;;;;;;1.00;0.30;;;;;;;0.75;98.14;99611.88;6156855;23;20055;-93
2023/03/12 01:29:30;;;;;;;0.05;0.05;;;;;;;0.77;98.68;99620.47;6131637;23;20109;-92
2023/03/12 01:31:57;;;;;;;0.17;0.17;;;;;;;0.71;99.25;99613.78;6183266;23;20079;-94
2023/03/12 01:34:22;;;;;;;0.43;0.28;;;;;;;0.65;98.66;99607.91;6155750;23;20420;-93
2023/03/12 01:36:48;;;;;;;0.20;0.20;;;;;;;0.59;99.23;99605.91;6156655;23;20017;-93
2023/03/12 01:39:13;;;;;;;0.00;0.00;;;;;;;0.62;100.00;99616.84;6156468;23;20017;-93
2023/03/12 01:41:40;;;;;;;0.75;0.75;;;;;;;0.58;100.00;99615.25;6156304;23;20016;-92
2023/03/12 01:44:06;;;;;;;0.32;0.32;;;;;;;0.59;100.00;99617.63;6156926;23;20005;-93
2023/03/12 01:46:37;;;;;;;3.42;1.20;;;;;;;0.52;100.00;99614.84;6107935;23;20081;-94
2023/03/12 01:49:15;;;;;;;0.00;0.00;;;;;;;0.54;100.00;99615.25;6133547;23;20013;-93
2023/03/12 01:51:59;;;;;;;0.00;0.00;;;;;;;0.48;100.00;99616.78;6156855;23;20016;-93
2023/03/12 01:54:31;;;;;;;0.00;0.00;;;;;;;0.47;100.00;99621.44;6132181;23;20133;-93
2023/03/12 01:56:57;;;;;;;0.05;0.05;;;;;;;0.44;100.00;99618.69;6131960;23;20023;-93
2023/03/12 01:59:27;;;;;;;0.10;0.10;;;;;;;0.47;100.00;99620.66;6156285;23;20099;-93
2023/03/12 02:04:31;;;;;;;0.13;0.13;;;;;;;0.36;100.00;99625.25;6172163;23;20096;-85
2023/03/12 02:07:09;;;;;;;1.13;0.40;;;;;;;0.30;100.00;99622.09;6153869;23;20013;-86
2023/03/12 02:09:40;;;;;;;0.10;0.10;;;;;;;0.22;100.00;99614.22;6154278;23;20028;-85
2023/03/12 02:12:07;;;;;;;0.32;0.30;;;;;;;0.23;100.00;99615.81;6129036;23;20075;-88
2023/03/12 02:14:32;;;;;;;0.20;0.20;;;;;;;0.23;100.00;99622.03;6154157;23;20021;-88
2023/03/12 02:16:58;;;;;;;0.22;0.22;;;;;;;0.13;100.00;99621.94;6130315;23;20013;-86
2023/03/12 02:19:50;;;;;;;0.22;0.22;;;;;;;0.29;100.00;99647.78;6129501;23;20398;-88
2023/03/12 02:22:17;;;;;;;0.00;0.00;;;;;;;0.28;100.00;99640.00;6130416;23;20024;-88
2023/03/12 02:25:11;;;;;;;0.40;0.40;;;;;;;0.28;100.00;99645.47;6131012;23;20076;-87
2023/03/12 02:27:38;;;;;;;0.00;0.00;;;;;;;0.20;100.00;99644.63;6164848;23;20024;-87
2023/03/12 02:30:05;;;;;;;0.15;0.15;;;;;;;0.20;100.00;99649.28;6154917;23;20004;-87
2023/03/12 02:32:37;;;;;;;0.00;0.00;;;;;;;0.20;100.00;99649.28;6129867;23;20013;-86
2023/03/12 02:35:04;;;;;;;0.43;0.43;;;;;;;0.21;100.00;99656.28;6129807;23;20012;-88
2023/03/12 02:37:29;;;;;;;0.00;0.00;;;;;;;0.17;100.00;99650.03;6127906;23;20072;-87
2023/03/12 02:40:01;;;;;;;0.00;0.00;;;;;;;0.15;100.00;99652.34;6129277;23;20087;-87
2023/03/12 02:42:27;;;;;;;0.00;0.00;;;;;;;0.10;100.00;99649.97;6129254;23;20020;-87
2023/03/12 02:44:52;;;;;;;0.57;0.45;;;;;;;-0.16;100.00;99629.84;6155003;23;20016;-88
2023/03/12 02:47:18;;;;;;;0.00;0.00;;;;;;;0.00;100.00;99668.56;6129807;23;20016;-87
2023/03/12 02:49:45;;;;;;;1.10;0.63;;;;;;;0.02;100.00;99670.16;6153910;23;20020;-86
2023/03/12 02:52:11;;;;;;;1.27;0.77;;;;;;;-0.02;100.00;99691.94;6153935;23;20020;-87
2023/03/12 02:54:37;;;;;;;0.08;0.08;;;;;;;-0.15;100.00;99677.78;6102748;23;20005;-87
2023/03/12 02:57:03;;;;;;;0.30;0.30;;;;;;;-0.11;100.00;99684.06;6152031;23;20044;-87
2023/03/12 02:59:30;;;;;;;0.10;0.10;;;;;;;-0.11;100.00;99684.06;6105223;23;20668;-88
2023/03/12 03:01:59;;;;;;;0.15;0.15;;;;;;;-0.19;100.00;99693.31;6127908;23;20017;-87
2023/03/12 03:04:26;;;;;;;3.83;1.58;;;;;;;-0.11;100.00;99711.31;6128820;23;20013;-87
2023/03/12 03:06:52;;;;;;;0.60;0.60;;;;;;;-0.10;100.00;99717.56;6126849;23;20355;-87
2023/03/12 03:09:20;;;;;;;0.00;0.00;;;;;;;-0.18;100.00;99705.78;6152070;23;20021;-87
2023/03/12 03:11:47;;;;;;;0.00;0.00;;;;;;;-0.32;100.00;99700.16;6129670;23;20024;-87
2023/03/12 03:14:13;;;;;;;0.00;0.00;;;;;;;-0.16;100.00;99711.63;6151545;23;20011;-87
2023/03/12 03:16:39;;;;;;;0.00;0.00;;;;;;;-0.19;100.00;99723.28;6153368;23;20029;-87
2023/03/12 03:19:05;;;;;;;0.08;0.08;;;;;;;-0.23;100.00;99732.59;6126020;23;20019;-87
2023/03/12 03:21:31;;;;;;;0.00;0.00;;;;;;;-0.28;100.00;99728.25;6152380;23;20117;-87
2023/03/12 03:23:56;;;;;;;0.00;0.00;;;;;;;-0.39;100.00;99711.00;6128622;23;20060;-87
2023/03/12 03:26:23;;;;;;;1.90;0.85;;;;;;;-0.26;100.00;99739.56;6102013;23;20356;-87
2023/03/12 03:28:49;;;;;;;0.22;0.22;;;;;;;-0.30;100.00;99733.31;6127246;23;20017;-87
2023/03/12 03:31:16;;;;;;;0.40;0.40;;;;;;;-0.30;100.00;99727.84;6126875;23;20009;-86
2023/03/12 03:33:42;;;;;;;0.13;0.13;;;;;;;-0.35;100.00;99711.81;6102881;23;20024;-86
2023/03/12 03:36:10;;;;;;;0.10;0.10;;;;;;;-0.36;100.00;99707.53;6128071;23;20015;-87
2023/03/12 03:38:43;;;;;;;0.00;0.00;;;;;;;-0.33;100.00;99725.88;6127315;23;20020;-88
2023/03/12 03:41:11;;;;;;;0.00;0.00;;;;;;;-0.36;100.00;99726.59;6106004;23;20104;-88
2023/03/12 03:43:41;;;;;;;0.10;0.10;;;;;;;-0.44;100.00;99722.22;6106718;23;20017;-88
2023/03/12 03:46:09;;;;;;;0.75;0.63;;;;;;;-0.43;100.00;99729.25;6131461;23;20036;-87
2023/03/12 03:48:39;;;;;;;0.63;0.60;;;;;;;-0.38;100.00;99739.03;6137572;23;20001;-87
2023/03/12 03:51:07;;;;;;;0.20;0.20;;;;;;;-0.42;100.00;99740.94;6137484;23;20020;-87
2023/03/12 03:53:35;;;;;;;0.15;0.15;;;;;;;-0.39;100.00;99753.81;6130978;23;20017;-87
2023/03/12 03:56:12;;;;;;;0.10;0.10;;;;;;;-0.43;100.00;99745.59;6152266;23;20013;-87
2023/03/12 03:58:42;;;;;;;0.05;0.05;;;;;;;-0.43;100.00;99748.31;6106075;23;20013;-87
2023/03/12 04:01:08;;;;;;;0.30;0.30;;;;;;;-0.48;100.00;99745.91;6153821;23;20012;-87
2023/03/12 04:03:34;;;;;;;0.00;0.00;;;;;;;-0.51;100.00;99747.44;6127849;23;20025;-87
2023/03/12 04:06:03;;;;;;;0.65;0.65;;;;;;;-0.44;100.00;99752.19;6130753;23;20021;-87
2023/03/12 04:08:31;;;;;;;0.40;0.40;;;;;;;-0.42;100.00;99755.34;6104517;23;20017;-87
2023/03/12 04:10:57;;;;;;;0.08;0.08;;;;;;;-0.46;100.00;99754.50;6154834;23;20012;-86
2023/03/12 04:13:23;;;;;;;0.30;0.30;;;;;;;-0.47;100.00;99763.84;6104111;23;20025;-87
2023/03/12 04:15:51;;;;;;;0.30;0.30;;;;;;;-0.53;100.00;99762.59;6127952;23;20009;-86
2023/03/12 04:18:18;;;;;;;0.13;0.13;;;;;;;-0.64;100.00;99748.81;6130944;23;20108;-87
2023/03/12 04:20:43;;;;;;;0.00;0.00;;;;;;;-0.73;100.00;99747.53;6126540;23;20013;-86
2023/03/12 04:23:09;;;;;;;0.32;0.32;;;;;;;-0.58;100.00;99752.81;6128536;23;20020;-86
2023/03/12 04:25:35;;;;;;;3.40;2.47;;;;;;;-0.46;100.00;99776.31;6105556;23;20037;-86
2023/03/12 04:28:01;;;;;;;0.50;0.50;;;;;;;-0.51;100.00;99771.97;6127138;23;20067;-87
2023/03/12 04:30:27;;;;;;;0.20;0.20;;;;;;;-0.54;100.00;99769.19;6154445;23;20044;-87
2023/03/12 04:32:53;;;;;;;0.00;0.00;;;;;;;-0.54;100.00;99785.53;6128192;23;20096;-87
2023/03/12 04:35:19;;;;;;;0.47;0.47;;;;;;;-0.59;100.00;99791.31;6103571;23;20134;-87
2023/03/12 04:37:44;;;;;;;0.00;0.00;;;;;;;-0.59;100.00;99799.47;6130088;23;20423;-87
2023/03/12 04:40:11;;;;;;;0.00;0.00;;;;;;;-0.77;100.00;99788.34;6128231;23;20642;-86
2023/03/12 04:42:36;;;;;;;0.00;0.00;;;;;;;-0.89;100.00;99785.03;6128381;23;20021;-87
2023/03/12 04:45:05;;;;;;;0.10;0.10;;;;;;;-0.94;100.00;99788.84;6127371;23;20024;-87
2023/03/12 04:47:31;;;;;;;0.00;0.00;;;;;;;-0.97;100.00;99801.25;6128531;23;20055;-87
2023/03/12 04:49:57;;;;;;;0.88;0.88;;;;;;;-0.89;100.00;99812.28;6104922;23;20016;-86
2023/03/12 04:52:24;;;;;;;0.43;0.40;;;;;;;-0.82;100.00;99823.25;6125955;23;20025;-85
2023/03/12 04:54:49;;;;;;;0.13;0.13;;;;;;;-0.86;100.00;99822.41;6130811;23;20786;-86
2023/03/12 04:57:15;;;;;;;0.38;0.38;;;;;;;-0.91;100.00;99806.38;6152273;23;20036;-86
2023/03/12 04:59:41;;;;;;;0.65;0.65;;;;;;;-0.89;100.00;99818.50;6128489;23;20092;-86
2023/03/12 05:02:07;;;;;;;0.30;0.30;;;;;;;-0.98;100.00;99813.31;6129498;23;20024;-86
2023/03/12 05:04:32;;;;;;;0.00;0.00;;;;;;;-0.93;100.00;99834.75;6150915;23;20048;-86
2023/03/12 05:06:58;;;;;;;0.00;0.00;;;;;;;-0.93;100.00;99842.16;6155172;23;20033;-86
2023/03/12 05:09:24;;;;;;;0.00;0.00;;;;;;;-1.04;100.00;99830.28;6153272;23;20408;-86
2023/03/12 05:11:50;;;;;;;0.75;0.73;;;;;;;-0.99;100.00;99847.13;6153514;23;20027;-87
2023/03/12 05:14:18;;;;;;;0.00;0.00;;;;;;;-0.97;100.00;99858.41;6129657;23;20116;-85
2023/03/12 05:16:46;;;;;;;0.20;0.20;;;;;;;-1.06;100.00;99847.00;6128968;23;20868;-86
2023/03/12 05:19:11;;;;;;;0.00;0.00;;;;;;;-0.97;100.00;99855.69;6129458;23;20071;-86
2023/03/12 05:21:40;;;;;;;0.50;0.50;;;;;;;-1.02;100.00;99856.03;6128231;23;20017;-87
2023/03/12 05:24:06;;;;;;;0.00;0.00;;;;;;;-1.02;100.00;99856.03;6181176;23;20001;-87
2023/03/12 05:26:32;;;;;;;1.38;0.70;;;;;;;-1.04;100.00;99854.78;6142757;23;20016;-86
2023/03/12 05:29:14;;;;;;;1.58;0.98;;;;;;;-0.99;100.00;99868.09;6118484;23;20016;-86
2023/03/12 05:31:39;;;;;;;1.08;0.77;;;;;;;-1.08;100.00;99859.41;6129903;23;20021;-87
2023/03/12 05:34:06;;;;;;;0.50;0.50;;;;;;;-1.00;100.00;99867.31;6127714;23;20096;-86
2023/03/12 05:36:38;;;;;;;0.20;0.20;;;;;;;-1.01;100.00;99860.28;6129771;23;20013;-86
2023/03/12 05:39:04;;;;;;;0.10;0.10;;;;;;;-0.95;100.00;99868.97;6128326;23;20022;-86
2023/03/12 05:41:31;;;;;;;0.35;0.35;;;;;;;-0.87;100.00;99867.94;6152427;23;20009;-87
2023/03/12 05:44:03;;;;;;;0.90;0.90;;;;;;;-0.82;100.00;99866.84;6107266;23;20013;-86
2023/03/12 05:46:28;;;;;;;2.08;0.90;;;;;;;-0.73;100.00;99887.22;6127522;23;20629;-86
2023/03/12 05:48:54;;;;;;;0.10;0.10;;;;;;;-0.63;100.00;99902.16;6127644;23;20021;-86
2023/03/12 05:51:20;;;;;;;0.47;0.47;;;;;;;-0.58;100.00;99891.75;6104962;23;20017;-86
2023/03/12 05:53:46;;;;;;;1.60;1.50;;;;;;;-0.49;100.00;99903.19;6104082;23;20693;-86
2023/03/12 05:56:14;;;;;;;1.23;1.13;;;;;;;-0.37;100.00;99904.91;6129221;23;20021;-86
2023/03/12 05:58:41;;;;;;;0.70;0.68;;;;;;;-0.27;100.00;99900.75;6127130;23;20097;-86
2023/03/12 06:01:12;;;;;;;0.52;0.52;;;;;;;-0.29;100.00;99887.50;6130055;23;20017;-86
2023/03/12 06:03:37;;;;;;;0.28;0.28;;;;;;;-0.14;100.00;99902.91;6152454;23;20473;-86
2023/03/12 06:06:03;;;;;;;0.38;0.38;;;;;;;-0.03;100.00;99912.00;6126064;23;20013;-86
2023/03/12 06:08:29;;;;;;;0.10;0.10;;;;;;;-0.05;100.00;99908.88;6128391;23;20023;-86
2023/03/12 06:10:54;;;;;;;0.93;0.73;;;;;;;-0.05;100.00;99889.78;6152612;23;20085;-86
2023/03/12 06:13:21;;;;;;;0.30;0.30;;;;;;;0.10;100.00;99907.13;6102726;23;20352;-86
2023/03/12 06:15:47;;;;;;;0.05;0.05;;;;;;;0.22;100.00;99914.28;6178787;23;20020;-86
2023/03/12 06:18:14;;;;;;;0.32;0.32;;;;;;;0.30;100.00;99913.22;6125847;23;20773;-86
2023/03/12 06:20:39;;;;;;;0.00;0.00;;;;;;;0.43;100.00;99914.53;6126673;23;20021;-86
2023/03/12 06:23:05;;;;;;;0.17;0.17;;;;;;;0.56;100.00;99934.97;6149331;23;20020;-86
2023/03/12 06:25:31;;;;;;;0.45;0.45;;;;;;;0.61;100.00;99926.44;6125983;23;20028;-86
2023/03/12 06:27:56;;;;;;;0.10;0.10;;;;;;;0.88;100.00;99951.72;6101819;23;20013;-86
2023/03/12 06:30:22;;;;;;;0.45;0.45;;;;;;;0.92;100.00;99931.47;6127798;23;20017;-87
2023/03/12 06:32:47;;;;;;;0.20;0.20;;;;;;;1.11;100.00;99948.81;6127696;23;20394;-85
2023/03/12 06:35:13;;;;;;;0.38;0.38;;;;;;;1.16;100.00;99937.56;6128183;23;20351;-85
2023/03/12 06:37:39;;;;;;;0.13;0.13;;;;;;;1.21;100.00;99926.28;6128808;23;20017;-86
2023/03/12 06:40:08;;;;;;;2.78;0.60;;;;;;;1.55;99.63;99960.53;6128490;23;20019;-85
2023/03/12 06:42:34;;;;;;;0.50;0.50;;;;;;;1.71;96.16;99968.47;6151875;23;20350;-86
2023/03/12 06:44:59;;;;;;;0.38;0.38;;;;;;;1.86;95.74;99967.44;6151290;23;20044;-85
2023/03/12 06:47:25;;;;;;;1.20;0.90;;;;;;;1.89;95.48;99950.25;6151584;23;20435;-85
2023/03/12 06:49:50;;;;;;;0.52;0.52;;;;;;;1.94;94.52;99938.19;6151816;23;20049;-86
2023/03/12 06:52:16;;;;;;;0.80;0.80;;;;;;;2.19;93.90;99958.25;6128405;23;20005;-86
2023/03/12 06:54:42;;;;;;;0.75;0.75;;;;;;;2.18;92.69;99962.16;6104282;23;20013;-87
2023/03/12 06:57:07;;;;;;;0.52;0.52;;;;;;;2.38;92.33;99965.41;6153351;23;20031;-86
2023/03/12 06:59:33;;;;;;;2.20;0.73;;;;;;;2.33;91.30;99941.91;6130144;23;20019;-86
2023/03/12 07:01:58;;;;;;;0.10;0.10;;;;;;;2.63;88.95;99961.59;6130565;23;20008;-92
2023/03/12 07:04:24;;;;;;;0.35;0.35;;;;;;;2.47;85.79;99936.50;6161411;23;20021;-91
2023/03/12 07:06:50;;;;;;;1.45;1.35;;;;;;;2.92;86.00;99967.94;6154640;23;20017;-91
2023/03/12 07:09:19;;;;;;;0.15;0.15;;;;;;;3.23;84.27;99988.41;6152646;23;20021;-91
2023/03/12 07:11:44;;;;;;;0.43;0.43;;;;;;;3.20;80.56;99948.03;6154537;23;20110;-91
2023/03/12 07:14:10;;;;;;;1.30;1.20;;;;;;;3.36;77.83;99975.88;6178512;23;20087;-92
2023/03/12 07:16:36;;;;;;;1.38;0.95;;;;;;;3.53;77.15;99969.63;6156011;23;20398;-91
2023/03/12 07:19:02;;;;;;;0.05;0.05;;;;;;;3.69;75.32;99978.25;6154507;23;20005;-91
2023/03/12 07:21:28;;;;;;;0.93;0.93;;;;;;;3.68;74.36;99976.69;6181252;23;20017;-86
2023/03/12 07:23:54;;;;;;;2.10;1.65;;;;;;;4.02;73.10;99990.00;6132064;23;20108;-86
2023/03/12 07:26:20;;;;;;;0.22;0.22;;;;;;;4.24;70.15;99997.03;6180908;23;20068;-86
2023/03/12 07:28:45;;;;;;;0.20;0.20;;;;;;;4.28;67.47;99975.84;6137761;23;20013;-87
2023/03/12 07:31:11;;;;;;;1.02;1.02;;;;;;;4.36;65.31;100013.09;6190946;23;20009;-87
2023/03/12 07:33:36;;;;;;;0.20;0.20;;;;;;;4.35;62.34;100008.78;6190215;23;20032;-88
2023/03/12 07:36:03;;;;;;;0.30;0.30;;;;;;;4.46;61.50;100008.75;6131024;23;20350;-87
2023/03/12 07:38:28;;;;;;;0.50;0.50;;;;;;;4.63;59.76;100014.19;6131620;23;20008;-87
2023/03/12 07:40:56;;;;;;;0.77;0.77;;;;;;;4.82;60.83;99999.19;6132216;23;20016;-87
2023/03/12 07:43:22;;;;;;;2.20;1.27;;;;;;;4.78;60.18;99990.19;6131521;23;20173;-86
2023/03/12 07:45:50;;;;;;;0.25;0.25;;;;;;;4.94;60.01;100006.22;6132999;23;20035;-87
2023/03/12 07:48:18;;;;;;;1.75;1.65;;;;;;;4.90;59.39;99992.50;6131276;23;20017;-88
2023/03/12 07:50:44;;;;;;;0.93;0.93;;;;;;;5.00;59.80;100010.13;6131209;23;20024;-87
2023/03/12 07:53:10;;;;;;;0.40;0.40;;;;;;;4.92;59.50;100003.88;6130222;23;20324;-87
2023/03/12 07:55:35;;;;;;;0.30;0.30;;;;;;;4.86;59.33;99994.47;6177684;23;20008;-88
2023/03/12 07:58:01;;;;;;;0.00;0.00;;;;;;;5.01;59.59;100012.50;6177743;23;20513;-87
2023/03/12 08:00:27;;;;;;;0.10;0.10;;;;;;;5.16;59.66;100019.47;6132212;23;20438;-86
2023/03/12 08:02:53;;;;;;;1.33;1.23;;;;;;;5.20;58.93;100000.22;6130506;23;20024;-87
2023/03/12 08:05:19;;;;;;;0.65;0.30;;;;;;;5.61;58.56;100023.13;6181748;23;20027;-87
2023/03/12 08:07:45;;;;;;;1.25;1.13;;;;;;;5.72;57.54;100011.25;6182418;23;20016;-87
2023/03/12 08:10:11;;;;;;;4.15;0.38;;;;;;;5.82;56.09;100015.91;6181953;23;20019;-88
2023/03/12 08:12:37;;;;;;;0.17;0.17;;;;;;;5.86;55.18;100034.00;6184120;23;20016;-87
2023/03/12 08:15:04;;;;;;;0.98;0.98;;;;;;;5.99;55.21;100031.50;6183589;23;20039;-88
2023/03/12 08:17:30;;;;;;;0.63;0.63;;;;;;;5.90;53.52;100025.72;6157971;23;20016;-88
2023/03/12 08:19:55;;;;;;;0.68;0.68;;;;;;;5.72;54.74;100036.03;6183510;23;20019;-87
2023/03/12 08:22:21;;;;;;;1.08;0.93;;;;;;;5.57;54.47;100030.63;6184018;23;20531;-87
2023/03/12 08:24:46;;;;;;;0.85;0.82;;;;;;;5.72;55.08;100022.25;6161115;23;20012;-88
2023/03/12 08:27:12;;;;;;;0.28;0.28;;;;;;;5.92;52.60;100021.34;6185077;23;20013;-87
2023/03/12 08:29:39;;;;;;;1.52;0.90;;;;;;;5.83;53.01;100039.47;6185078;23;20012;-87
2023/03/12 08:32:05;;;;;;;0.43;0.43;;;;;;;5.87;53.62;100040.25;6184438;23;20719;-87
2023/03/12 08:34:31;;;;;;;0.52;0.52;;;;;;;6.17;52.67;100045.94;6184162;23;20031;-87
2023/03/12 08:36:57;;;;;;;0.45;0.45;;;;;;;6.07;50.11;100038.53;6134680;23;20021;-87
2023/03/12 08:39:22;;;;;;;1.17;0.43;;;;;;;6.32;49.92;100043.81;6184530;23;20012;-87
2023/03/12 08:41:48;;;;;;;0.25;0.25;;;;;;;6.64;50.09;100026.94;6160038;23;20328;-87
2023/03/12 08:44:13;;;;;;;0.63;0.63;;;;;;;7.06;48.74;100047.75;6184170;23;20446;-88
2023/03/12 08:46:39;;;;;;;0.00;0.00;;;;;;;7.07;46.11;100049.31;6184316;23;20016;-88
2023/03/12 08:49:04;;;;;;;0.45;0.45;;;;;;;6.98;45.92;100047.06;6183937;23;20023;-88
2023/03/12 08:51:30;;;;;;;0.73;0.65;;;;;;;6.81;45.60;100056.31;6159632;23;20039;-88
2023/03/12 08:53:56;;;;;;;0.60;0.60;;;;;;;6.75;44.73;100044.19;6183823;23;20072;-87
2023/03/12 08:56:21;;;;;;;0.40;0.40;;;;;;;6.95;45.27;100053.41;6159105;23;20024;-88
2023/03/12 08:58:47;;;;;;;0.10;0.10;;;;;;;6.90;44.95;100029.81;6157717;23;20024;-88
2023/03/12 09:01:13;;;;;;;2.60;2.38;;;;;;;7.12;45.45;100052.38;6184588;23;20012;-89
2023/03/12 09:03:40;;;;;;;0.40;0.40;;;;;;;7.21;44.63;100065.66;6153575;23;20332;-88
2023/03/12 09:06:15;;;;;;;0.03;0.03;;;;;;;7.22;46.30;100056.22;6154179;23;20013;-87
2023/03/12 09:08:45;;;;;;;0.52;0.20;;;;;;;7.27;45.94;100034.47;6148829;23;20024;-88
2023/03/12 09:11:12;;;;;;;1.10;1.00;;;;;;;7.82;46.39;100045.09;6127502;23;20368;-88
2023/03/12 09:13:39;;;;;;;0.73;0.73;;;;;;;7.82;45.30;100058.13;6151190;23;20023;-88
2023/03/12 09:16:05;;;;;;;0.30;0.20;;;;;;;7.92;46.47;100049.69;6127602;23;20330;-88
2023/03/12 09:18:31;;;;;;;0.52;0.52;;;;;;;7.98;44.33;100027.88;6175087;23;20013;-88
2023/03/12 09:20:56;;;;;;;0.13;0.13;;;;;;;8.24;45.52;100043.63;6154015;23;20111;-88
2023/03/12 09:23:23;;;;;;;0.20;0.20;;;;;;;8.30;44.21;100032.91;6153402;23;20017;-88
2023/03/12 09:25:49;;;;;;;0.25;0.25;;;;;;;8.39;43.45;100036.69;6178552;23;20013;-88
2023/03/12 09:28:15;;;;;;;1.33;0.90;;;;;;;8.35;43.94;100033.19;6153496;23;20100;-88
2023/03/12 09:30:41;;;;;;;0.73;0.73;;;;;;;8.65;44.20;100034.25;6129451;23;20096;-89
2023/03/12 09:33:07;;;;;;;0.38;0.38;;;;;;;8.70;43.85;100053.09;6153809;23;20005;-88
2023/03/12 09:35:32;;;;;;;0.30;0.30;;;;;;;8.87;44.10;100029.84;6130707;23;20013;-88
2023/03/12 09:37:58;;;;;;;0.52;0.52;;;;;;;9.05;42.72;100033.06;6180118;23;20124;-89
2023/03/12 09:40:27;;;;;;;0.45;0.43;;;;;;;8.60;42.35;100010.63;6155494;23;20158;-89
2023/03/12 09:43:10;;;;;;;0.70;0.68;;;;;;;8.64;42.95;100044.53;6179051;23;20071;-88
2023/03/12 09:45:43;;;;;;;0.30;0.30;;;;;;;8.48;42.44;100018.75;6129578;23;20022;-88
2023/03/12 09:48:46;;;;;;;0.00;0.00;;;;;;;8.58;42.49;100037.13;6154616;23;20328;-88
2023/03/12 09:51:22;;;;;;;0.00;0.00;;;;;;;8.70;43.02;100033.72;6168506;23;20442;-89
2023/03/12 09:53:53;;;;;;;0.75;0.52;;;;;;;8.79;43.03;100004.31;6180232;23;20013;-89
2023/03/12 09:56:20;;;;;;;0.17;0.17;;;;;;;8.94;41.76;100013.09;6130310;23;20021;-89
2023/03/12 09:58:47;;;;;;;0.47;0.47;;;;;;;9.21;41.53;100032.31;6179413;23;20083;-89
2023/03/12 10:01:36;;;;;;;0.65;0.65;;;;;;;9.08;40.51;100034.19;6153741;23;20500;-89
2023/03/12 10:04:22;;;;;;;0.10;0.10;;;;;;;9.24;41.69;100026.72;6165118;23;20113;-89
2023/03/12 10:06:56;;;;;;;0.38;0.38;;;;;;;9.29;40.56;100017.91;6130609;23;20025;-89
2023/03/12 10:09:27;;;;;;;0.47;0.47;;;;;;;9.46;40.40;100020.72;6105155;23;20029;-89
2023/03/12 10:12:32;;;;;;;6.72;1.25;;;;;;;9.94;40.55;100012.44;6155246;23;20100;-87
2023/03/12 10:15:24;;;;;;;0.68;0.68;;;;;;;9.56;39.87;99975.38;6129954;23;20075;-88
2023/03/12 10:18:06;;;;;;;0.82;0.82;;;;;;;9.65;40.25;100020.66;6176759;23;20105;-88
2023/03/12 10:20:56;;;;;;;0.20;0.15;;;;;;;9.26;40.53;100004.16;6129645;23;20092;-88
2023/03/12 10:23:28;;;;;;;0.47;0.35;;;;;;;9.34;41.32;100020.16;6105303;23;20028;-87
2023/03/12 10:25:57;;;;;;;0.00;0.00;;;;;;;9.28;40.70;100016.34;6182390;23;20013;-87
2023/03/12 10:28:42;;;;;;;0.28;0.28;;;;;;;9.38;40.75;100013.78;6105153;23;20033;-87
2023/03/12 10:31:21;;;;;;;0.28;0.28;;;;;;;9.59;40.28;100018.81;6153239;23;20021;-88
2023/03/12 10:33:51;;;;;;;0.00;0.00;;;;;;;9.78;40.10;100009.69;6153303;23;20017;-87
2023/03/12 10:36:23;;;;;;;0.88;0.77;;;;;;;9.98;39.62;100012.34;6153269;23;20447;-88
2023/03/12 10:38:48;;;;;;;0.68;0.68;;;;;;;10.00;39.65;100007.16;6129425;23;20067;-88
2023/03/12 10:41:21;;;;;;;0.20;0.20;;;;;;;9.96;39.95;100010.00;6153495;23;20005;-88
2023/03/12 10:43:46;;;;;;;0.00;0.00;;;;;;;9.98;39.68;99996.50;6122442;23;20793;-88
2023/03/12 10:46:36;;;;;;;0.03;0.03;;;;;;;10.45;39.11;100015.53;6129068;23;20024;-88
2023/03/12 10:49:20;;;;;;;0.10;0.10;;;;;;;10.40;38.55;100010.50;6152665;23;20130;-88
2023/03/12 10:51:56;;;;;;;;;;;;;;;10.20;39.28;100007.84;6162535;23;20056;-88
2023/03/12 10:54:30;;;;;;;0.08;0.08;;;;;;;10.48;39.64;100009.88;6128943;23;19923;-88
2023/03/12 10:56:56;;;;;;;0.15;0.15;;;;;;;10.18;38.39;100005.53;6149398;23;20025;-89
2023/03/12 10:59:26;;;;;;;0.45;0.45;;;;;;;10.29;40.17;100017.13;6150560;23;20005;-87
2023/03/12 11:01:52;;;;;;;0.30;0.25;;;;;;;10.59;38.91;100004.06;6151553;23;20092;-88
2023/03/12 11:04:22;;;;;;;0.13;0.13;;;;;;;10.48;38.23;100009.09;6166648;23;20447;-88
2023/03/12 11:07:17;;;;;;;0.20;0.20;;;;;;;10.90;38.85;100007.94;6157227;23;20028;-88
2023/03/12 11:09:43;;;;;;;0.03;0.03;;;;;;;11.08;37.95;99988.75;6155794;23;20010;-88
2023/03/12 11:12:29;;;;;;;3.65;1.15;;;;;;;11.14;37.70;99987.00;6155765;23;20005;-88
2023/03/12 11:14:56;;;;;;;7.60;0.80;;;;;;;10.93;36.73;99993.19;6182853;23;20120;-88
2023/03/12 11:17:28;;;;;;;0.43;0.43;;;;;;;10.80;36.94;99984.03;6131931;23;20095;-89
2023/03/12 11:19:54;;;;;;;0.50;0.50;;;;;;;11.12;37.20;99983.88;6155677;23;20016;-89
2023/03/12 11:22:31;;;;;;;0.20;0.20;;;;;;;11.13;37.26;99965.22;6130581;23;20405;-89
2023/03/12 11:25:03;;;;;;;0.17;0.17;;;;;;;11.49;36.71;99989.91;6156666;23;20059;-89
2023/03/12 11:27:42;;;;;;;0.32;0.32;;;;;;;11.09;36.40;99979.22;6180512;23;20016;-89
2023/03/12 11:30:11;;;;;;;0.90;0.90;;;;;;;11.20;37.45;99985.22;6130982;23;20110;-89
2023/03/12 11:32:43;;;;;;;0.80;0.57;;;;;;;10.86;36.53;99976.75;6156408;23;20013;-89
2023/03/12 11:35:11;;;;;;;0.63;0.63;;;;;;;11.03;38.59;99975.44;6156110;23;20501;-89
2023/03/12 11:37:52;;;;;;;0.40;0.40;;;;;;;10.96;37.29;99978.41;6131806;23;20067;-89
2023/03/12 11:40:39;;;;;;;0.80;0.65;;;;;;;11.23;37.66;99967.69;6128865;23;20056;-88
2023/03/12 11:43:43;;;;;;;0.22;0.22;;;;;;;11.28;37.34;99965.59;6204087;23;20023;-88